createdAt,value
2018-02-23T00:01:51.479Z,6.10
2018-02-23T00:04:17.938Z,6.97
2018-02-23T00:06:44.433Z,6.20
2018-02-23T00:09:11.141Z,6.28
2018-02-23T00:11:37.546Z,5.90
2018-02-23T00:14:03.965Z,5.70
2018-02-23T00:16:30.406Z,5.85
2018-02-23T00:18:56.810Z,6.43
2018-02-23T00:21:23.236Z,5.85
2018-02-23T00:23:49.914Z,5.90
2018-02-23T00:26:16.335Z,5.70
2018-02-23T00:28:43.587Z,5.90
2018-02-23T00:31:10.082Z,5.62
2018-02-23T00:33:36.617Z,6.15
2018-02-23T00:36:03.068Z,5.28
2018-02-23T00:38:29.544Z,5.82
2018-02-23T00:40:56.746Z,5.45
2018-02-23T00:43:23.188Z,5.93
2018-02-23T00:45:50.668Z,5.37
2018-02-23T00:48:17.128Z,5.32
2018-02-23T00:50:43.550Z,6.62
2018-02-23T00:53:10.441Z,5.32
2018-02-23T00:55:36.874Z,5.78
2018-02-23T00:58:03.292Z,7.23
2018-02-23T01:00:29.870Z,5.65
2018-02-23T01:02:56.347Z,5.55
2018-02-23T01:05:23.510Z,5.10
2018-02-23T01:07:49.996Z,6.20
2018-02-23T01:10:16.489Z,6.72
2018-02-23T01:12:42.966Z,5.97
2018-02-23T01:15:09.463Z,7.32
2018-02-23T01:17:35.913Z,6.15
2018-02-23T01:20:02.352Z,6.12
2018-02-23T01:22:28.803Z,5.55
2018-02-23T01:24:55.237Z,5.75
2018-02-23T01:27:21.623Z,6.07
2018-02-23T01:29:48.405Z,5.60
2018-02-23T01:32:14.883Z,6.22
2018-02-23T01:34:41.341Z,6.05
2018-02-23T01:37:08.205Z,6.20
2018-02-23T01:39:34.617Z,6.45
2018-02-23T01:42:01.011Z,6.07
2018-02-23T01:44:28.236Z,7.25
2018-02-23T01:46:55.431Z,6.43
2018-02-23T01:49:22.591Z,6.28
2018-02-23T01:51:49.069Z,5.87
2018-02-23T01:54:16.252Z,6.70
2018-02-23T01:56:42.685Z,6.57
2018-02-23T01:59:09.130Z,7.00
2018-02-23T02:01:36.308Z,6.80
2018-02-23T02:04:02.930Z,8.07
2018-02-23T02:06:29.445Z,5.43
2018-02-23T02:08:56.657Z,7.53
2018-02-23T02:11:23.088Z,8.23
2018-02-23T02:13:49.796Z,6.50
2018-02-23T02:16:16.258Z,7.37
2018-02-23T02:18:42.687Z,6.82
2018-02-23T02:21:09.158Z,7.30
2018-02-23T02:23:35.735Z,5.87
2018-02-23T02:26:02.962Z,7.03
2018-02-23T02:28:30.567Z,7.82
2018-02-23T02:30:57.017Z,6.72
2018-02-23T02:33:23.544Z,8.07
2018-02-23T02:35:50.031Z,7.25
2018-02-23T02:38:16.471Z,7.60
2018-02-23T02:40:43.652Z,8.32
2018-02-23T02:43:10.150Z,8.00
2018-02-23T02:45:37.573Z,8.35
2018-02-23T02:48:04.053Z,7.47
2018-02-23T02:50:30.523Z,7.18
2018-02-23T02:52:59.469Z,7.20
2018-02-23T02:55:25.876Z,7.22
2018-02-23T02:57:53.820Z,8.30
2018-02-23T03:00:20.278Z,7.62
2018-02-23T03:02:48.688Z,7.87
2018-02-23T03:05:15.928Z,6.87
2018-02-23T03:07:42.370Z,6.90
2018-02-23T03:10:09.601Z,7.68
2018-02-23T03:12:36.125Z,7.43
2018-02-23T03:15:02.622Z,6.67
2018-02-23T03:17:29.101Z,8.15
2018-02-23T03:19:55.558Z,6.93
2018-02-23T03:22:22.052Z,8.02
2018-02-23T03:24:48.564Z,6.93
2018-02-23T03:27:14.950Z,7.60
2018-02-23T03:29:41.365Z,6.53
2018-02-23T03:32:07.817Z,7.65
2018-02-23T03:34:34.247Z,7.77
2018-02-23T03:37:01.415Z,7.07
2018-02-23T03:39:28.725Z,7.32
2018-02-23T03:41:55.176Z,6.68
2018-02-23T03:44:21.632Z,5.72
2018-02-23T03:46:48.941Z,7.32
2018-02-23T03:49:15.386Z,6.75
2018-02-23T03:51:41.825Z,6.37
2018-02-23T03:54:08.317Z,8.05
2018-02-23T03:56:34.763Z,9.80
2018-02-23T03:59:01.191Z,8.45
2018-02-23T04:01:27.609Z,7.90
2018-02-23T04:03:54.500Z,7.87
2018-02-23T04:06:20.941Z,8.75
2018-02-23T04:08:47.459Z,9.35
2018-02-23T04:11:13.921Z,9.82
2018-02-23T04:13:41.065Z,11.00
2018-02-23T04:16:07.550Z,10.40
2018-02-23T04:18:34.058Z,11.45
2018-02-23T04:21:01.302Z,11.57
2018-02-23T04:23:28.569Z,11.57
2018-02-23T04:25:55.439Z,11.12
2018-02-23T04:28:22.633Z,11.77
2018-02-23T04:30:49.134Z,11.43
2018-02-23T04:33:15.885Z,12.95
2018-02-23T04:35:42.300Z,11.68
2018-02-23T04:38:08.752Z,10.20
2018-02-23T04:40:35.321Z,11.73
2018-02-23T04:43:01.726Z,11.07
2018-02-23T04:45:28.275Z,10.25
2018-02-23T04:47:54.829Z,11.05
2018-02-23T04:50:21.318Z,10.93
2018-02-23T04:52:47.746Z,9.55
2018-02-23T04:55:14.968Z,9.38
2018-02-23T04:57:41.405Z,8.55
2018-02-23T05:00:08.685Z,9.10
2018-02-23T05:02:35.460Z,9.65
2018-02-23T05:05:01.861Z,10.68
2018-02-23T05:07:28.245Z,11.23
2018-02-23T05:09:54.697Z,8.82
2018-02-23T05:12:21.106Z,10.13
2018-02-23T05:14:47.543Z,11.07
2018-02-23T05:17:14.327Z,9.23
2018-02-23T05:19:40.791Z,9.30
2018-02-23T05:22:07.266Z,8.52
2018-02-23T05:24:33.794Z,10.65
2018-02-23T05:27:00.207Z,9.68
2018-02-23T05:29:26.724Z,9.82
2018-02-23T05:31:53.281Z,8.38
2018-02-23T05:34:19.776Z,7.60
2018-02-23T05:36:46.300Z,8.30
2018-02-23T05:39:13.513Z,10.32
2018-02-23T05:41:39.977Z,9.00
2018-02-23T05:44:06.373Z,7.93
2018-02-23T05:46:33.115Z,7.97
2018-02-23T05:48:59.549Z,8.75
2018-02-23T05:51:25.989Z,9.18
2018-02-23T05:53:52.804Z,8.27
2018-02-23T05:56:19.228Z,7.95
2018-02-23T05:58:46.420Z,7.37
2018-02-23T06:01:13.090Z,7.40
2018-02-23T06:03:39.629Z,7.47
2018-02-23T06:06:06.805Z,8.32
2018-02-23T06:08:33.294Z,9.23
2018-02-23T06:10:59.796Z,8.32
2018-02-23T06:13:26.208Z,9.25
2018-02-23T06:15:58.691Z,7.70
2018-02-23T06:18:31.349Z,10.02
2018-02-23T06:20:57.765Z,8.43
2018-02-23T06:23:24.209Z,7.78
2018-02-23T06:25:51.476Z,7.45
2018-02-23T06:28:18.048Z,8.10
2018-02-23T06:30:44.561Z,7.53
2018-02-23T06:33:10.990Z,7.95
2018-02-23T06:35:37.392Z,7.45
2018-02-23T06:38:04.392Z,8.18
2018-02-23T06:40:30.827Z,7.07
2018-02-23T06:42:57.335Z,7.53
2018-02-23T06:45:23.952Z,8.25
2018-02-23T06:47:51.225Z,7.00
2018-02-23T06:50:17.743Z,7.50
2018-02-23T06:52:44.293Z,7.45
2018-02-23T06:55:10.740Z,7.57
2018-02-23T06:57:37.168Z,7.50
2018-02-23T07:00:03.905Z,7.20
2018-02-23T07:02:30.785Z,8.07
2018-02-23T07:04:57.240Z,7.90
2018-02-23T07:07:23.845Z,8.02
2018-02-23T07:09:50.284Z,5.80
2018-02-23T07:12:16.790Z,8.20
2018-02-23T07:14:43.555Z,8.38
2018-02-23T07:17:09.965Z,9.82
2018-02-23T07:19:36.423Z,8.50
2018-02-23T07:22:03.035Z,7.45
2018-02-23T07:24:29.565Z,8.10
2018-02-23T07:26:56.978Z,9.25
2018-02-23T07:29:24.091Z,8.25
2018-02-23T07:31:51.460Z,9.55
2018-02-23T07:34:17.859Z,9.35
2018-02-23T07:36:44.495Z,9.30
2018-02-23T07:39:11.143Z,8.63
2018-02-23T07:41:37.681Z,11.27
2018-02-23T07:44:04.371Z,8.63
2018-02-23T07:46:30.790Z,8.18
2018-02-23T07:48:57.213Z,8.15
2018-02-23T07:51:24.070Z,8.07
2018-02-23T07:53:50.505Z,7.35
2018-02-23T07:56:17.080Z,8.98
2018-02-23T07:58:44.303Z,8.48
2018-02-23T08:01:11.585Z,8.18
2018-02-23T08:03:38.086Z,9.50
2018-02-23T08:06:04.883Z,8.10
2018-02-23T08:08:31.339Z,7.90
2018-02-23T08:10:57.894Z,9.00
2018-02-23T08:13:24.822Z,6.65
2018-02-23T08:15:51.414Z,7.62
2018-02-23T08:18:17.817Z,7.70
2018-02-23T08:20:44.385Z,7.03
2018-02-23T08:23:10.799Z,6.10
2018-02-23T08:25:37.223Z,9.57
2018-02-23T08:28:04.069Z,7.07
2018-02-23T08:30:31.386Z,7.40
2018-02-23T08:32:57.983Z,7.40
2018-02-23T08:35:25.198Z,7.53
2018-02-23T08:37:51.636Z,6.82
2018-02-23T08:40:18.213Z,6.80
2018-02-23T08:42:44.756Z,6.53
2018-02-23T08:45:12.000Z,6.75
2018-02-23T08:47:38.513Z,7.47
2018-02-23T08:50:05.040Z,7.28
2018-02-23T08:52:31.489Z,7.50
2018-02-23T08:54:57.939Z,7.07
2018-02-23T08:57:24.497Z,6.78
2018-02-23T08:59:51.106Z,7.15
2018-02-23T09:02:17.552Z,5.72
2018-02-23T09:04:44.795Z,6.57
2018-02-23T09:07:11.183Z,6.97
2018-02-23T09:09:37.724Z,4.95
2018-02-23T09:12:04.294Z,5.62
2018-02-23T09:14:31.457Z,5.82
2018-02-23T09:16:58.667Z,5.75
2018-02-23T09:19:25.428Z,5.12
2018-02-23T09:21:51.939Z,5.60
2018-02-23T09:24:18.462Z,5.20
2018-02-23T09:26:45.337Z,5.00
2018-02-23T09:29:11.752Z,5.35
2018-02-23T09:31:38.210Z,5.68
2018-02-23T09:34:16.769Z,4.50
2018-02-23T09:36:43.239Z,4.50
2018-02-23T09:39:09.764Z,4.47
2018-02-23T09:41:36.638Z,4.80
2018-02-23T09:44:03.843Z,4.40
2018-02-23T09:46:30.312Z,4.80
2018-02-23T09:48:57.167Z,4.18
2018-02-23T09:51:23.717Z,4.35
2018-02-23T09:53:50.264Z,3.80
2018-02-23T09:56:17.791Z,4.32
2018-02-23T09:58:44.229Z,3.90
2018-02-23T10:01:12.278Z,4.32
2018-02-23T10:03:39.046Z,4.70
2018-02-23T10:06:05.514Z,4.13
2018-02-23T10:08:33.772Z,4.33
2018-02-23T10:11:00.551Z,5.00
2018-02-23T10:13:26.949Z,4.55
2018-02-23T10:15:53.410Z,3.62
2018-02-23T10:18:20.261Z,3.42
2018-02-23T10:20:46.627Z,3.55
2018-02-23T10:23:13.873Z,3.33
2018-02-23T10:25:40.445Z,3.62
2018-02-23T10:28:06.971Z,3.65
2018-02-23T10:30:34.169Z,3.72
2018-02-23T10:33:01.264Z,4.40
2018-02-23T10:35:27.914Z,13.68
2018-02-23T10:37:54.445Z,4.45
2018-02-23T10:40:21.039Z,4.55
2018-02-23T10:42:47.679Z,3.03
2018-02-23T10:45:14.214Z,3.53
2018-02-23T10:47:41.185Z,6.40
2018-02-23T10:50:07.661Z,4.07
2018-02-23T10:52:34.190Z,3.00
2018-02-23T10:55:00.741Z,3.03
2018-02-23T10:57:28.095Z,3.15
2018-02-23T10:59:55.249Z,3.70
2018-02-23T11:02:21.835Z,3.40
2018-02-23T11:04:48.298Z,3.47
2018-02-23T11:07:15.688Z,3.40
2018-02-23T11:09:42.278Z,3.22
2018-02-23T11:12:09.494Z,2.67
2018-02-23T11:14:36.069Z,4.07
2018-02-23T11:17:03.353Z,2.95
2018-02-23T11:19:30.566Z,3.45
2018-02-23T11:21:57.741Z,2.72
2018-02-23T11:24:25.270Z,2.58
2018-02-23T11:26:51.802Z,2.60
2018-02-23T11:29:18.967Z,3.97
2018-02-23T11:31:46.724Z,3.75
2018-02-23T11:34:13.192Z,2.30
2018-02-23T11:36:39.646Z,2.28
2018-02-23T11:39:06.103Z,2.15
2018-02-23T11:41:32.638Z,2.20
2018-02-23T11:43:59.400Z,1.65
2018-02-23T11:46:26.113Z,1.87
2018-02-23T11:48:52.661Z,2.67
2018-02-23T11:51:19.219Z,2.37
2018-02-23T11:53:46.489Z,2.30
2018-02-23T11:56:12.981Z,2.30
2018-02-23T11:58:39.584Z,2.00
2018-02-23T12:01:06.046Z,2.10
2018-02-23T12:03:32.480Z,2.45
2018-02-23T12:05:58.916Z,25.95
2018-02-23T12:08:25.376Z,2.72
2018-02-23T12:10:51.841Z,3.45
2018-02-23T12:13:18.251Z,2.28
2018-02-23T12:15:46.031Z,1.80
2018-02-23T12:18:12.524Z,1.90
2018-02-23T12:20:38.976Z,1.75
2018-02-23T12:23:05.508Z,1.60
2018-02-23T12:25:32.083Z,2.00
2018-02-23T12:27:58.665Z,2.10
2018-02-23T12:30:25.403Z,2.50
2018-02-23T12:32:51.909Z,1.95
2018-02-23T12:35:19.075Z,6.85
2018-02-23T12:37:45.558Z,5.15
2018-02-23T12:40:12.764Z,2.47
2018-02-23T12:42:39.248Z,2.00
2018-02-23T12:45:05.711Z,2.67
2018-02-23T12:47:32.151Z,1.77
2018-02-23T12:49:59.359Z,1.83
2018-02-23T12:52:27.140Z,2.53
2018-02-23T12:54:53.608Z,1.85
2018-02-23T12:57:20.968Z,1.67
2018-02-23T12:59:47.882Z,2.40
2018-02-23T13:02:14.228Z,2.62
2018-02-23T13:04:41.478Z,2.55
2018-02-23T13:07:08.433Z,2.10
2018-02-23T13:09:35.662Z,2.62
2018-02-23T13:12:02.188Z,2.10
2018-02-23T13:14:34.593Z,2.87
2018-02-23T13:17:01.814Z,3.00
2018-02-23T13:19:29.013Z,2.42
2018-02-23T13:21:55.531Z,3.25
2018-02-23T13:24:22.096Z,1.80
2018-02-23T13:26:48.548Z,1.87
2018-02-23T13:29:15.323Z,2.53
2018-02-23T13:31:42.510Z,2.12
2018-02-23T13:34:08.934Z,2.63
2018-02-23T13:36:35.464Z,2.97
2018-02-23T13:39:01.963Z,2.62
2018-02-23T13:41:34.442Z,3.08
2018-02-23T13:44:01.014Z,2.53
2018-02-23T13:46:27.633Z,4.82
2018-02-23T13:48:54.193Z,7.55
2018-02-23T13:51:20.813Z,3.60
2018-02-23T13:53:48.032Z,2.78
2018-02-23T13:56:14.780Z,2.53
2018-02-23T13:58:41.391Z,2.33
2018-02-23T14:01:07.889Z,2.30
2018-02-23T14:03:34.443Z,2.33
2018-02-23T14:06:03.000Z,2.40
2018-02-23T14:08:30.292Z,2.60
2018-02-23T14:10:56.787Z,2.80
2018-02-23T14:13:23.386Z,2.30
2018-02-23T14:15:49.858Z,3.60
2018-02-23T14:18:17.172Z,2.55
2018-02-23T14:20:43.763Z,3.22
2018-02-23T14:23:10.991Z,2.35
2018-02-23T14:25:45.253Z,2.70
2018-02-23T14:28:11.728Z,2.42
2018-02-23T14:30:38.228Z,2.28
2018-02-23T14:33:04.752Z,2.60
2018-02-23T14:35:31.174Z,2.47
2018-02-23T14:37:58.325Z,2.37
2018-02-23T14:40:25.065Z,2.03
2018-02-23T14:45:26.158Z,2.22
2018-02-23T14:47:52.548Z,1.93
2018-02-23T14:50:31.828Z,2.10
2018-02-23T14:52:59.095Z,2.10
2018-02-23T14:55:25.625Z,1.90
2018-02-23T14:57:52.459Z,2.60
2018-02-23T15:00:19.001Z,2.92
2018-02-23T15:02:45.525Z,2.40
2018-02-23T15:05:12.230Z,2.35
2018-02-23T15:07:39.401Z,2.75
2018-02-23T15:10:05.906Z,5.10
2018-02-23T15:12:32.470Z,3.42
2018-02-23T15:14:59.053Z,2.45
2018-02-23T15:17:25.507Z,2.37
2018-02-23T15:19:52.273Z,3.35
2018-02-23T15:22:18.654Z,1.50
2018-02-23T15:24:45.227Z,1.60
2018-02-23T15:27:11.823Z,2.17
2018-02-23T15:29:38.352Z,6.93
2018-02-23T15:32:17.218Z,2.10
2018-02-23T15:34:43.636Z,1.75
2018-02-23T15:37:10.134Z,2.05
2018-02-23T15:39:36.684Z,2.28
2018-02-23T15:42:03.185Z,1.95
2018-02-23T15:44:29.628Z,3.72
2018-02-23T15:46:56.245Z,2.10
2018-02-23T15:49:29.518Z,1.77
2018-02-23T15:51:56.014Z,2.00
2018-02-23T15:54:22.597Z,2.37
2018-02-23T15:56:49.153Z,2.45
2018-02-23T15:59:16.375Z,1.98
2018-02-23T16:01:42.916Z,1.80
2018-02-23T16:04:09.420Z,2.03
2018-02-23T16:06:36.011Z,2.12
2018-02-23T16:09:03.334Z,2.05
2018-02-23T16:11:29.870Z,2.60
2018-02-23T16:13:56.378Z,1.80
2018-02-23T16:16:23.236Z,2.12
2018-02-23T16:18:49.748Z,2.50
2018-02-23T16:21:16.144Z,1.92
2018-02-23T16:23:43.432Z,2.20
2018-02-23T16:26:09.886Z,1.80
2018-02-23T16:28:36.313Z,2.50
2018-02-23T16:31:03.090Z,2.80
2018-02-23T16:33:29.508Z,2.50
2018-02-23T16:35:56.099Z,2.58
2018-02-23T16:38:22.896Z,1.90
2018-02-23T16:40:49.385Z,2.50
2018-02-23T16:43:15.973Z,2.20
2018-02-23T16:45:42.554Z,2.37
2018-02-23T16:48:09.180Z,2.30
2018-02-23T16:50:35.611Z,2.50
2018-02-23T16:53:02.422Z,2.17
2018-02-23T16:55:29.020Z,2.85
2018-02-23T16:57:55.588Z,2.30
2018-02-23T17:00:22.191Z,2.42
2018-02-23T17:02:49.394Z,2.58
2018-02-23T17:05:16.722Z,3.07
2018-02-23T17:07:43.501Z,2.53
2018-02-23T17:10:09.984Z,2.90
2018-02-23T17:12:36.388Z,2.40
2018-02-23T17:15:03.657Z,2.87
2018-02-23T17:17:31.436Z,2.05
2018-02-23T17:19:57.830Z,4.72
2018-02-23T17:22:24.321Z,1.90
2018-02-23T17:24:50.809Z,3.00
2018-02-23T17:27:17.299Z,2.45
2018-02-23T17:29:43.800Z,2.45
2018-02-23T17:32:10.299Z,2.15
2018-02-23T17:34:37.576Z,2.75
2018-02-23T17:37:03.996Z,2.65
2018-02-23T17:39:31.226Z,2.67
2018-02-23T17:41:57.650Z,2.60
2018-02-23T17:44:24.125Z,2.83
2018-02-23T17:46:50.664Z,7.05
2018-02-23T17:49:17.620Z,1.75
2018-02-23T17:51:44.072Z,2.92
2018-02-23T17:54:10.685Z,2.47
2018-02-23T17:56:37.132Z,3.10
2018-02-23T17:59:03.650Z,2.12
2018-02-23T18:01:30.842Z,2.58
2018-02-23T18:03:57.300Z,2.67
2018-02-23T18:06:23.898Z,4.25
2018-02-23T18:08:51.137Z,2.65
2018-02-23T18:11:18.040Z,2.47
2018-02-23T18:13:45.421Z,2.53
2018-02-23T18:16:11.885Z,2.80
2018-02-23T18:18:38.532Z,2.55
2018-02-23T18:21:05.101Z,2.78
2018-02-23T18:23:31.550Z,3.15
2018-02-23T18:25:58.127Z,2.30
2018-02-23T18:28:24.568Z,2.70
2018-02-23T18:30:51.017Z,2.60
2018-02-23T18:33:17.477Z,2.42
2018-02-23T18:35:43.999Z,3.05
2018-02-23T18:38:10.555Z,2.72
2018-02-23T18:40:37.021Z,2.62
2018-02-23T18:43:03.507Z,2.80
2018-02-23T18:45:30.677Z,3.33
2018-02-23T18:47:57.147Z,2.95
2018-02-23T18:50:23.562Z,2.78
2018-02-23T18:52:50.861Z,2.55
2018-02-23T18:55:17.592Z,2.28
2018-02-23T18:57:44.886Z,2.80
2018-02-23T19:00:12.126Z,2.70
2018-02-23T19:02:39.661Z,2.40
2018-02-23T19:05:06.136Z,3.00
2018-02-23T19:07:33.317Z,2.85
2018-02-23T19:09:59.906Z,2.35
2018-02-23T19:12:26.380Z,3.40
2018-02-23T19:14:52.866Z,2.53
2018-02-23T19:17:19.916Z,2.17
2018-02-23T19:19:46.473Z,2.53
2018-02-23T19:22:13.634Z,3.33
2018-02-23T19:24:41.123Z,3.03
2018-02-23T19:27:07.509Z,3.45
2018-02-23T19:29:35.034Z,4.90
2018-02-23T19:32:01.563Z,3.15
2018-02-23T19:34:28.734Z,3.30
2018-02-23T19:36:55.098Z,3.25
2018-02-23T19:39:22.045Z,3.20
2018-02-23T19:41:49.165Z,4.05
2018-02-23T19:44:15.534Z,3.33
2018-02-23T19:46:42.320Z,3.40
2018-02-23T19:49:08.732Z,4.55
2018-02-23T19:51:35.183Z,4.05
2018-02-23T19:54:01.652Z,3.33
2018-02-23T19:56:28.087Z,4.07
2018-02-23T19:58:54.471Z,3.08
2018-02-23T20:01:20.905Z,2.47
2018-02-23T20:03:47.385Z,7.03
2018-02-23T20:06:13.794Z,3.75
2018-02-23T20:08:40.722Z,3.70
2018-02-23T20:11:07.160Z,3.83
2018-02-23T20:13:33.562Z,5.07
2018-02-23T20:16:00.929Z,3.62
2018-02-23T20:18:27.327Z,4.10
2018-02-23T20:20:53.914Z,3.53
2018-02-23T20:23:20.484Z,3.63
2018-02-23T20:25:47.765Z,4.22
2018-02-23T20:28:14.180Z,4.22
2018-02-23T20:30:40.910Z,3.62
2018-02-23T20:33:07.320Z,5.45
2018-02-23T20:35:33.810Z,3.55
2018-02-23T20:38:01.434Z,3.20
2018-02-23T20:40:27.831Z,3.37
2018-02-23T20:42:54.249Z,3.45
2018-02-23T20:45:20.705Z,3.95
2018-02-23T20:47:47.258Z,3.90
2018-02-23T20:50:13.661Z,3.40
2018-02-23T20:52:40.944Z,4.00
2018-02-23T20:55:07.344Z,3.70
2018-02-23T20:57:34.720Z,3.62
2018-02-23T21:00:01.290Z,4.40
2018-02-23T21:02:27.699Z,5.15
2018-02-23T21:04:54.102Z,4.85
2018-02-23T21:07:20.566Z,4.60
2018-02-23T21:09:47.845Z,4.55
2018-02-23T21:12:14.262Z,3.72
2018-02-23T21:14:40.768Z,3.65
2018-02-23T21:17:07.193Z,5.15
2018-02-23T21:19:34.475Z,2.95
2018-02-23T21:22:01.209Z,4.57
2018-02-23T21:24:27.696Z,5.95
2018-02-23T21:26:54.076Z,5.00
2018-02-23T21:29:20.585Z,3.58
2018-02-23T21:31:46.994Z,4.18
2018-02-23T21:34:13.451Z,3.45
2018-02-23T21:36:41.139Z,3.42
2018-02-23T21:39:07.634Z,7.03
2018-02-23T21:41:47.277Z,4.50
2018-02-23T21:44:14.743Z,4.70
2018-02-23T21:46:41.889Z,5.70
2018-02-23T21:49:09.397Z,5.07
2018-02-23T21:51:35.787Z,4.90
2018-02-23T21:54:02.240Z,3.90
2018-02-23T21:56:29.047Z,5.10
2018-02-23T21:58:56.233Z,3.90
2018-02-23T22:01:22.648Z,3.20
2018-02-23T22:03:50.146Z,3.42
2018-02-23T22:06:17.368Z,4.62
2018-02-23T22:08:44.658Z,3.72
2018-02-23T22:11:12.190Z,4.50
2018-02-23T22:13:38.599Z,3.30
2018-02-23T22:16:05.005Z,3.20
2018-02-23T22:18:31.496Z,3.10
2018-02-23T22:20:57.909Z,3.83
2018-02-23T22:23:25.167Z,2.92
2018-02-23T22:25:51.659Z,3.80
2018-02-23T22:28:18.157Z,4.10
2018-02-23T22:30:44.858Z,3.58
2018-02-23T22:33:11.598Z,3.80
2018-02-23T22:35:38.072Z,3.65
2018-02-23T22:38:04.573Z,3.62
2018-02-23T22:40:30.972Z,3.20
2018-02-23T22:42:57.475Z,3.72
2018-02-23T22:45:23.917Z,4.20
2018-02-23T22:47:50.431Z,3.67
2018-02-23T22:50:17.618Z,2.95
2018-02-23T22:52:44.932Z,3.37
2018-02-23T22:55:12.415Z,4.32
2018-02-23T22:57:39.579Z,3.95
2018-02-23T23:00:06.037Z,3.47
2018-02-23T23:02:33.252Z,3.72
2018-02-23T23:04:59.624Z,2.72
2018-02-23T23:07:26.032Z,2.47
2018-02-23T23:09:52.625Z,2.85
2018-02-23T23:12:19.099Z,2.83
2018-02-23T23:14:46.244Z,2.50
2018-02-23T23:17:12.936Z,3.03
2018-02-23T23:19:40.111Z,3.33
2018-02-23T23:22:06.566Z,2.72
2018-02-23T23:24:33.006Z,2.85
2018-02-23T23:26:59.424Z,3.00
2018-02-23T23:29:25.817Z,3.00
2018-02-23T23:31:52.803Z,2.58
2018-02-23T23:34:19.209Z,3.60
2018-02-23T23:36:45.635Z,3.22
2018-02-23T23:39:12.129Z,3.03
2018-02-23T23:41:38.605Z,2.92
2018-02-23T23:44:05.078Z,3.08
2018-02-23T23:46:31.474Z,2.90
2018-02-23T23:48:57.860Z,2.83
2018-02-23T23:51:24.237Z,3.22
2018-02-23T23:53:51.440Z,2.30
2018-02-23T23:56:17.873Z,2.92
2018-02-23T23:58:44.253Z,2.90
